Show newer

あたまがえっちないなえっち

実は仕事でバイオハザードIIIの映画は数百回は見てるんだけど、それでも覚えられんもんは覚えられん
興味がないってそういうことだよね

どっちも女キャラが叩いて倒す系の映画でよく判らん

アンジェリーナ・ジョリーとミラ・ジョヴォヴィッチが一時期よくごっちゃになってた
バイオハザードがミラ・ジョヴォヴィッチでトゥームレイダーがアンジェリーナ・ジョリーであってる?

のらがバイオハザード

実は偽札で、偽札犯を仕立て上げるとか

取りに来た人とアカウントの紐付けとか?

02/23 07:00
METAR RJOO 222200Z 29003KT 250V360 9999 FEW030 SCT040 BKN060 10/04 Q1016 RMK 1CU030 3CU040 5SC060 A3002=

ダフト・パンク解散とな

昨日のマストドンの活動は

トゥート : 18505(+39)
フォロー : 169(0)
フォロワー : 214(0)

でした。
donhaialert.herokuapp.com

明日誕生日か(陛下の)

SはサービスのS
Mは満足のM

聖子ぅさん、そっち行ったよ

(兵庫)尼崎市東園田町3丁目付近で暴行 2月21日夜 this.kiji.is/73637377316883660

ネーコンのねこ、昔毎日やって全種類出した

電車座ってTL開いたらいきなりセックスしたい発言

TLに王と教祖を混同している人

Show older
hikoukidon

個人運用サーバです。 Private server.